createdAt,value
2019-03-28T00:00:54.375Z,76.40
2019-03-28T00:03:23.891Z,76.80
2019-03-28T00:05:53.782Z,76.90
2019-03-28T00:08:23.707Z,77.30
2019-03-28T00:10:53.230Z,77.60
2019-03-28T00:13:22.816Z,77.90
2019-03-28T00:15:52.354Z,78.20
2019-03-28T00:18:21.903Z,78.70
2019-03-28T00:20:51.478Z,79.30
2019-03-28T00:23:34.864Z,79.70
2019-03-28T00:26:04.476Z,79.90
2019-03-28T00:28:34.043Z,80.80
2019-03-28T00:31:04.713Z,81.00
2019-03-28T00:33:34.249Z,81.30
2019-03-28T00:36:03.981Z,82.00
2019-03-28T00:38:36.359Z,82.50
2019-03-28T00:41:05.925Z,82.80
2019-03-28T00:43:35.513Z,83.30
2019-03-28T00:46:05.052Z,83.50
2019-03-28T00:48:34.602Z,84.20
2019-03-28T00:51:04.605Z,85.00
2019-03-28T00:53:34.158Z,85.70
2019-03-28T00:56:03.851Z,85.60
2019-03-28T00:58:34.178Z,85.10
2019-03-28T01:01:03.763Z,86.00
2019-03-28T01:03:33.318Z,87.00
2019-03-28T01:06:02.874Z,86.70
2019-03-28T01:08:32.454Z,86.80
2019-03-28T01:11:01.996Z,87.00
2019-03-28T01:13:31.530Z,87.00
2019-03-28T01:16:01.183Z,86.90
2019-03-28T01:18:30.727Z,87.00
2019-03-28T01:21:00.162Z,87.30
2019-03-28T01:23:29.618Z,87.00
2019-03-28T01:25:59.039Z,86.80
2019-03-28T01:28:28.394Z,86.80
2019-03-28T01:30:57.739Z,86.80
2019-03-28T01:33:27.402Z,86.80
2019-03-28T01:35:56.868Z,86.70
2019-03-28T01:38:26.206Z,86.70
2019-03-28T01:40:55.551Z,86.70
2019-03-28T01:43:25.027Z,86.80
2019-03-28T01:45:54.554Z,86.80
2019-03-28T01:48:23.978Z,86.80
2019-03-28T01:50:53.314Z,86.80
2019-03-28T01:53:22.841Z,86.70
2019-03-28T01:55:52.371Z,86.70
2019-03-28T01:58:21.796Z,86.80
2019-03-28T02:00:51.063Z,86.90
2019-03-28T02:03:20.361Z,87.10
2019-03-28T02:05:50.075Z,87.30
2019-03-28T02:08:19.623Z,86.80
2019-03-28T02:10:49.391Z,87.50
2019-03-28T02:13:22.283Z,87.80
2019-03-28T02:15:52.047Z,87.80
2019-03-28T02:18:21.608Z,87.90
2019-03-28T02:20:51.190Z,88.30
2019-03-28T02:23:20.721Z,88.30
2019-03-28T02:25:50.279Z,88.40
2019-03-28T02:28:19.836Z,88.40
2019-03-28T02:30:50.668Z,88.20
2019-03-28T02:33:20.403Z,88.20
2019-03-28T02:35:49.863Z,88.40
2019-03-28T02:38:19.447Z,88.50
2019-03-28T02:40:48.977Z,88.50
2019-03-28T02:43:19.789Z,88.60
2019-03-28T02:45:49.813Z,88.70
2019-03-28T02:48:19.383Z,88.90
2019-03-28T02:50:48.934Z,88.90
2019-03-28T02:53:18.516Z,88.90
2019-03-28T02:55:48.052Z,88.70
2019-03-28T02:58:17.596Z,89.30
2019-03-28T03:00:47.872Z,90.40
2019-03-28T03:03:17.708Z,90.90
2019-03-28T03:05:47.243Z,91.70
2019-03-28T03:08:16.818Z,91.80
2019-03-28T03:10:46.394Z,92.30
2019-03-28T03:13:15.907Z,92.40
2019-03-28T03:16:04.828Z,92.60
2019-03-28T03:18:34.489Z,93.10
2019-03-28T03:21:04.229Z,93.70
2019-03-28T03:23:33.748Z,94.30
2019-03-28T03:26:03.314Z,94.80
2019-03-28T03:28:32.863Z,95.10
2019-03-28T03:31:02.419Z,95.10
2019-03-28T03:33:31.973Z,95.60
2019-03-28T03:36:01.537Z,96.00
2019-03-28T03:38:31.139Z,96.40
2019-03-28T03:41:00.679Z,96.60
2019-03-28T03:43:30.260Z,96.90
2019-03-28T03:45:59.811Z,97.20
2019-03-28T03:48:29.357Z,97.40
2019-03-28T03:50:58.934Z,97.80
2019-03-28T03:53:28.483Z,98.10
2019-03-28T03:55:58.040Z,98.20
2019-03-28T03:58:27.606Z,98.40
2019-03-28T04:00:57.143Z,98.40
2019-03-28T04:03:26.735Z,98.50
2019-03-28T04:05:56.292Z,98.70
2019-03-28T04:08:26.928Z,98.80
2019-03-28T04:10:56.799Z,98.90
2019-03-28T04:13:26.356Z,99.10
2019-03-28T04:15:55.956Z,99.40
2019-03-28T04:18:25.517Z,99.50
2019-03-28T04:21:07.572Z,99.50
2019-03-28T04:23:37.118Z,99.40
2019-03-28T04:26:07.024Z,99.60
2019-03-28T04:28:36.572Z,99.90
2019-03-28T04:31:06.116Z,99.90
2019-03-28T04:33:35.862Z,99.90
2019-03-28T04:36:05.624Z,99.90
2019-03-28T04:38:35.195Z,99.90
2019-03-28T04:41:04.749Z,99.90
2019-03-28T04:43:34.306Z,99.90
2019-03-28T04:46:03.851Z,99.90
2019-03-28T04:48:33.409Z,99.90
2019-03-28T04:51:04.044Z,99.90
2019-03-28T04:53:33.591Z,99.90
2019-03-28T04:56:03.915Z,99.90
2019-03-28T04:58:43.911Z,99.90
2019-03-28T05:01:04.938Z,99.90
2019-03-28T05:03:34.508Z,99.90
2019-03-28T05:06:04.055Z,99.90
2019-03-28T05:08:33.627Z,99.90
2019-03-28T05:11:03.167Z,99.90
2019-03-28T05:13:32.717Z,99.90
2019-03-28T05:16:02.322Z,99.90
2019-03-28T05:18:32.252Z,99.90
2019-03-28T05:21:01.828Z,99.90
2019-03-28T05:23:31.379Z,99.90
2019-03-28T05:26:00.913Z,99.90
2019-03-28T05:28:30.546Z,99.90
2019-03-28T05:31:00.087Z,99.90
2019-03-28T05:33:29.760Z,99.90
2019-03-28T05:35:59.312Z,99.90
2019-03-28T05:38:28.850Z,99.90
2019-03-28T05:40:58.431Z,99.90
2019-03-28T05:43:27.996Z,99.90
2019-03-28T05:45:57.539Z,99.90
2019-03-28T05:48:27.099Z,99.90
2019-03-28T05:50:56.635Z,99.90
2019-03-28T05:53:26.248Z,99.90
2019-03-28T05:55:55.856Z,99.90
2019-03-28T05:58:25.434Z,99.90
2019-03-28T06:00:54.994Z,99.90
2019-03-28T06:03:24.561Z,99.90
2019-03-28T06:05:54.260Z,99.90
2019-03-28T06:08:23.795Z,99.90
2019-03-28T06:10:53.347Z,99.90
2019-03-28T06:13:22.904Z,99.90
2019-03-28T06:15:53.451Z,99.90
2019-03-28T06:18:24.031Z,99.90
2019-03-28T06:20:53.582Z,99.90
2019-03-28T06:23:23.135Z,99.90
2019-03-28T06:25:52.699Z,99.90
2019-03-28T06:28:22.254Z,99.90
2019-03-28T06:30:52.247Z,99.90
2019-03-28T06:33:30.603Z,99.90
2019-03-28T06:36:06.047Z,99.70
2019-03-28T06:38:42.637Z,99.40
2019-03-28T06:41:18.367Z,99.70
2019-03-28T06:43:54.131Z,99.90
2019-03-28T06:46:28.848Z,99.90
2019-03-28T06:49:04.596Z,99.90
2019-03-28T06:51:41.147Z,99.90
2019-03-28T06:54:16.611Z,99.90
2019-03-28T06:56:54.637Z,99.90
2019-03-28T06:59:37.417Z,99.90
2019-03-28T07:02:04.991Z,99.90
2019-03-28T07:04:38.142Z,99.80
2019-03-28T07:07:18.487Z,99.70
2019-03-28T07:09:57.175Z,99.60
2019-03-28T07:12:38.183Z,99.40
2019-03-28T07:15:11.324Z,99.60
2019-03-28T07:17:48.194Z,99.50
2019-03-28T07:20:27.639Z,99.20
2019-03-28T07:23:02.571Z,99.30
2019-03-28T07:25:39.193Z,99.30
2019-03-28T07:28:16.842Z,98.90
2019-03-28T07:30:55.191Z,98.80
2019-03-28T07:33:33.668Z,98.80
2019-03-28T07:36:14.203Z,98.50
2019-03-28T07:38:52.644Z,98.50
2019-03-28T07:41:31.202Z,98.50
2019-03-28T07:44:08.753Z,98.40
2019-03-28T07:46:47.714Z,98.90
2019-03-28T07:49:29.676Z,98.50
2019-03-28T07:52:02.054Z,98.40
2019-03-28T07:54:40.669Z,98.50
2019-03-28T07:57:13.039Z,98.40
2019-03-28T08:00:03.543Z,98.20
2019-03-28T08:02:28.130Z,98.20
2019-03-28T08:05:01.465Z,98.50
2019-03-28T08:07:45.193Z,97.90
2019-03-28T08:10:18.262Z,98.00
2019-03-28T08:12:55.942Z,98.10
2019-03-28T08:15:35.176Z,97.40
2019-03-28T08:18:15.299Z,97.40
2019-03-28T08:20:54.255Z,97.90
2019-03-28T08:23:35.053Z,97.30
2019-03-28T08:26:12.721Z,97.00
2019-03-28T08:28:51.286Z,96.80
2019-03-28T08:31:34.771Z,96.70
2019-03-28T08:34:12.303Z,96.90
2019-03-28T08:36:45.661Z,96.30
2019-03-28T08:39:17.522Z,96.30
2019-03-28T08:41:56.753Z,96.00
2019-03-28T08:44:35.315Z,96.20
2019-03-28T08:47:16.755Z,96.50
2019-03-28T08:49:58.552Z,96.80
2019-03-28T08:52:36.316Z,96.90
2019-03-28T08:55:14.316Z,96.10
2019-03-28T08:57:53.278Z,95.80
2019-03-28T09:00:34.998Z,95.50
2019-03-28T09:03:07.644Z,95.70
2019-03-28T09:05:47.327Z,95.80
2019-03-28T09:08:25.331Z,96.10
2019-03-28T09:11:00.270Z,95.10
2019-03-28T09:13:39.765Z,95.00
2019-03-28T09:16:17.327Z,95.20
2019-03-28T09:18:55.258Z,95.00
2019-03-28T09:21:29.783Z,94.20
2019-03-28T09:24:07.349Z,94.10
2019-03-28T09:26:42.818Z,94.10
2019-03-28T09:29:24.515Z,93.80
2019-03-28T09:32:02.002Z,93.10
2019-03-28T09:34:41.235Z,92.90
2019-03-28T09:37:18.372Z,92.70
2019-03-28T09:39:55.380Z,92.40
2019-03-28T09:42:32.394Z,92.40
2019-03-28T09:45:20.631Z,92.40
2019-03-28T09:47:59.855Z,93.30
2019-03-28T09:50:41.411Z,91.00
2019-03-28T09:53:13.098Z,92.10
2019-03-28T09:55:51.471Z,92.40
2019-03-28T09:58:26.752Z,92.30
2019-03-28T10:01:06.472Z,91.90
2019-03-28T10:03:50.951Z,90.50
2019-03-28T10:06:31.483Z,91.30
2019-03-28T10:09:05.117Z,91.10
2019-03-28T10:11:43.944Z,90.60
2019-03-28T10:14:17.437Z,90.90
2019-03-28T10:16:52.988Z,91.00
2019-03-28T10:19:31.544Z,89.40
2019-03-28T10:22:12.546Z,91.20
2019-03-28T10:24:52.014Z,90.00
2019-03-28T10:27:30.546Z,87.80
2019-03-28T10:30:14.555Z,86.30
2019-03-28T10:32:49.555Z,87.90
2019-03-28T10:35:33.043Z,88.10
2019-03-28T10:38:09.103Z,86.40
2019-03-28T10:40:40.861Z,86.70
2019-03-28T10:43:18.458Z,84.30
2019-03-28T10:45:56.455Z,85.60
2019-03-28T10:48:39.617Z,86.30
2019-03-28T10:51:18.620Z,87.20
2019-03-28T10:53:52.617Z,85.80
2019-03-28T10:56:31.631Z,85.20
2019-03-28T10:59:22.616Z,83.20
2019-03-28T11:01:51.638Z,83.50
2019-03-28T11:04:31.647Z,82.30
2019-03-28T11:07:11.663Z,81.10
2019-03-28T11:09:53.681Z,78.50
2019-03-28T11:12:27.658Z,77.40
2019-03-28T11:15:07.689Z,78.60
2019-03-28T11:17:45.689Z,77.40
2019-03-28T11:20:25.150Z,78.30
2019-03-28T11:23:03.709Z,78.10
2019-03-28T11:25:40.248Z,77.30
2019-03-28T11:28:17.738Z,80.50
2019-03-28T11:30:50.103Z,80.40
2019-03-28T11:33:31.181Z,80.30
2019-03-28T11:36:12.153Z,82.50
2019-03-28T11:38:45.140Z,83.30
2019-03-28T11:41:20.597Z,83.20
2019-03-28T11:44:00.722Z,84.70
2019-03-28T11:46:45.195Z,84.50
2019-03-28T11:49:21.043Z,87.20
2019-03-28T11:51:59.722Z,89.40
2019-03-28T11:54:39.204Z,89.10
2019-03-28T11:57:18.723Z,87.90
2019-03-28T11:59:57.909Z,86.70
2019-03-28T12:02:26.354Z,86.80
2019-03-28T12:05:03.723Z,86.80
2019-03-28T12:07:37.342Z,80.90
2019-03-28T12:10:13.201Z,81.00
2019-03-28T12:12:50.074Z,78.50
2019-03-28T12:15:20.092Z,75.80
2019-03-28T12:17:57.729Z,77.10
2019-03-28T12:20:29.852Z,73.30
2019-03-28T12:23:00.182Z,74.20
2019-03-28T12:25:30.193Z,73.40
2019-03-28T12:28:00.686Z,69.30
2019-03-28T12:30:30.639Z,70.90
2019-03-28T12:33:00.964Z,72.70
2019-03-28T12:35:32.104Z,71.20
2019-03-28T12:38:08.275Z,76.50
2019-03-28T12:40:50.819Z,74.90
2019-03-28T12:43:32.817Z,77.50
2019-03-28T12:46:08.113Z,76.40
2019-03-28T12:48:50.841Z,76.50
2019-03-28T12:51:26.510Z,75.60
2019-03-28T12:54:04.858Z,72.50
2019-03-28T12:56:44.329Z,75.10
2019-03-28T12:59:22.332Z,75.90
2019-03-28T13:02:03.859Z,74.90
2019-03-28T13:04:41.868Z,73.90
2019-03-28T13:07:22.869Z,74.80
2019-03-28T13:10:01.858Z,74.10
2019-03-28T13:12:33.273Z,74.70
2019-03-28T13:15:11.870Z,74.90
2019-03-28T13:17:44.573Z,76.30
2019-03-28T13:20:22.157Z,77.60
2019-03-28T13:23:02.871Z,78.50
2019-03-28T13:25:35.003Z,77.20
2019-03-28T13:28:05.332Z,76.90
2019-03-28T13:30:35.650Z,72.60
2019-03-28T13:33:05.768Z,72.30
2019-03-28T13:35:35.785Z,75.00
2019-03-28T13:38:15.731Z,78.10
2019-03-28T13:40:47.797Z,75.60
2019-03-28T13:43:20.791Z,75.80
2019-03-28T13:45:56.892Z,74.70
2019-03-28T13:48:30.033Z,75.00
2019-03-28T13:51:07.835Z,76.30
2019-03-28T13:53:46.347Z,68.70
2019-03-28T13:56:18.914Z,74.60
2019-03-28T13:58:49.145Z,74.80
2019-03-28T14:01:19.879Z,76.60
2019-03-28T14:04:02.803Z,74.80
2019-03-28T14:06:43.954Z,74.90
2019-03-28T14:09:24.923Z,74.50
2019-03-28T14:12:02.924Z,74.30
2019-03-28T14:14:41.919Z,74.90
2019-03-28T14:17:20.922Z,74.80
2019-03-28T14:19:55.122Z,74.50
2019-03-28T14:22:30.363Z,76.20
2019-03-28T14:25:09.919Z,77.60
2019-03-28T14:27:45.655Z,78.70
2019-03-28T14:30:23.950Z,78.40
2019-03-28T14:33:11.119Z,77.30
2019-03-28T14:35:39.465Z,75.40
2019-03-28T14:38:15.313Z,75.10
2019-03-28T14:40:51.957Z,76.60
2019-03-28T14:43:25.177Z,74.40
2019-03-28T14:46:00.724Z,74.00
2019-03-28T14:48:38.453Z,76.00
2019-03-28T14:51:16.995Z,74.90
2019-03-28T14:53:55.912Z,75.30
2019-03-28T14:56:36.979Z,75.50
2019-03-28T14:59:09.412Z,75.40
2019-03-28T15:01:42.709Z,75.20
2019-03-28T15:04:16.986Z,76.20
2019-03-28T15:06:59.628Z,76.20
2019-03-28T15:09:36.995Z,76.60
2019-03-28T15:12:15.442Z,77.50
2019-03-28T15:14:54.468Z,77.80
2019-03-28T15:17:30.004Z,79.00
2019-03-28T15:20:06.482Z,79.30
2019-03-28T15:23:01.188Z,80.00
2019-03-28T15:25:39.490Z,80.10
2019-03-28T15:28:21.489Z,80.20
2019-03-28T15:31:03.012Z,81.40
2019-03-28T15:33:40.093Z,80.80
2019-03-28T15:36:17.017Z,81.10
2019-03-28T15:38:56.471Z,81.00
2019-03-28T15:41:37.011Z,82.00
2019-03-28T15:44:16.011Z,82.00
2019-03-28T15:49:37.497Z,80.10
2019-03-28T15:52:20.072Z,79.80
2019-03-28T15:54:52.686Z,79.90
2019-03-28T15:57:31.068Z,78.30
2019-03-28T16:00:11.083Z,77.80
2019-03-28T16:02:48.082Z,77.60
2019-03-28T16:05:29.515Z,79.90
2019-03-28T16:08:07.520Z,81.40
2019-03-28T16:10:46.089Z,82.00
2019-03-28T16:13:24.090Z,82.40
2019-03-28T16:16:05.097Z,82.40
2019-03-28T16:18:43.104Z,83.20
2019-03-28T16:21:26.505Z,83.30
2019-03-28T16:23:58.003Z,83.90
2019-03-28T16:26:34.106Z,84.10
2019-03-28T16:29:11.127Z,84.10
2019-03-28T16:31:49.128Z,84.20
2019-03-28T16:34:26.138Z,84.70
2019-03-28T16:37:02.594Z,85.10
2019-03-28T16:39:43.567Z,86.00
2019-03-28T16:42:22.124Z,85.90
2019-03-28T16:45:04.600Z,85.80
2019-03-28T16:47:46.126Z,85.60
2019-03-28T16:50:22.648Z,88.00
2019-03-28T16:52:55.737Z,87.10
2019-03-28T16:55:34.561Z,87.00
2019-03-28T16:58:16.122Z,87.80
2019-03-28T17:00:54.125Z,87.60
2019-03-28T17:03:33.122Z,87.50
2019-03-28T17:06:14.121Z,87.90
2019-03-28T17:08:53.123Z,88.50
2019-03-28T17:11:27.397Z,88.40
2019-03-28T17:13:59.785Z,88.30
2019-03-28T17:16:35.932Z,88.20
2019-03-28T17:19:11.589Z,89.10
2019-03-28T17:21:48.763Z,89.10
2019-03-28T17:24:28.026Z,90.40
2019-03-28T17:27:05.120Z,90.70
2019-03-28T17:29:37.463Z,90.10
2019-03-28T17:32:15.119Z,91.80
2019-03-28T17:34:57.558Z,92.20
2019-03-28T17:37:36.118Z,92.90
2019-03-28T17:40:09.466Z,91.80
2019-03-28T17:42:50.072Z,92.50
2019-03-28T17:45:23.836Z,93.00
2019-03-28T17:48:02.707Z,94.70
2019-03-28T17:50:41.120Z,93.60
2019-03-28T17:53:36.587Z,93.30
2019-03-28T17:56:18.585Z,93.20
2019-03-28T17:58:57.521Z,92.90
2019-03-28T18:01:38.118Z,94.60
2019-03-28T18:04:23.173Z,94.20
2019-03-28T18:06:55.199Z,94.40
2019-03-28T18:09:26.046Z,95.40
2019-03-28T18:11:56.119Z,94.60
2019-03-28T18:14:34.590Z,94.20
2019-03-28T18:17:15.557Z,94.70
2019-03-28T18:19:53.116Z,95.00
2019-03-28T18:22:25.517Z,94.90
2019-03-28T18:25:00.552Z,95.30
2019-03-28T18:27:36.611Z,95.30
2019-03-28T18:30:08.062Z,95.60
2019-03-28T18:32:45.115Z,94.50
2019-03-28T18:35:24.117Z,95.50
2019-03-28T18:38:02.114Z,95.50
2019-03-28T18:40:40.588Z,95.40
2019-03-28T18:43:22.116Z,98.20
2019-03-28T18:46:01.119Z,96.80
2019-03-28T18:48:42.115Z,96.80
2019-03-28T18:51:23.560Z,95.20
2019-03-28T18:54:04.118Z,94.60
2019-03-28T18:56:42.113Z,95.50
2019-03-28T18:59:15.320Z,97.70
2019-03-28T19:01:51.584Z,96.80
2019-03-28T19:04:33.113Z,96.90
2019-03-28T19:07:12.113Z,96.10
2019-03-28T19:09:46.519Z,95.80
2019-03-28T19:12:21.925Z,96.50
2019-03-28T19:14:54.742Z,99.10
2019-03-28T19:17:36.114Z,96.40
2019-03-28T19:20:14.115Z,96.60
2019-03-28T19:22:56.113Z,96.50
2019-03-28T19:25:29.523Z,97.80
2019-03-28T19:28:08.116Z,97.70
2019-03-28T19:30:46.555Z,96.20
2019-03-28T19:33:25.583Z,97.40
2019-03-28T19:36:07.111Z,99.30
2019-03-28T19:38:45.585Z,97.00
2019-03-28T19:41:25.110Z,98.80
2019-03-28T19:44:05.587Z,98.10
2019-03-28T19:46:51.589Z,96.00
2019-03-28T19:49:32.043Z,96.40
2019-03-28T19:52:05.952Z,97.80
2019-03-28T19:54:46.114Z,97.00
2019-03-28T19:57:21.853Z,96.00
2019-03-28T20:00:00.363Z,97.00
2019-03-28T20:02:36.635Z,97.00
2019-03-28T20:05:16.124Z,97.20
2019-03-28T20:07:52.026Z,96.30
2019-03-28T20:10:35.121Z,96.10
2019-03-28T20:13:13.360Z,98.20
2019-03-28T20:15:53.618Z,96.50
2019-03-28T20:18:28.443Z,97.20
2019-03-28T20:21:10.444Z,97.20
2019-03-28T20:23:48.831Z,97.00
2019-03-28T20:26:29.740Z,96.50
2019-03-28T20:29:10.601Z,98.60
2019-03-28T20:31:45.755Z,99.90
2019-03-28T20:34:22.615Z,99.90
2019-03-28T20:36:57.953Z,99.90
2019-03-28T20:39:32.828Z,99.80
2019-03-28T20:42:09.660Z,99.90
2019-03-28T20:44:46.129Z,99.90
2019-03-28T20:47:19.832Z,97.70
2019-03-28T20:50:01.589Z,96.20
2019-03-28T20:52:41.679Z,96.60
2019-03-28T20:55:20.707Z,97.40
2019-03-28T20:57:55.144Z,97.50
2019-03-28T21:00:39.486Z,96.50
2019-03-28T21:03:15.394Z,98.00
2019-03-28T21:05:53.281Z,96.90
2019-03-28T21:11:23.577Z,97.50
2019-03-28T21:14:01.833Z,97.80
2019-03-28T21:16:47.780Z,97.30
2019-03-28T21:19:22.094Z,97.70
2019-03-28T21:21:57.743Z,96.40
2019-03-28T21:24:36.774Z,97.90
2019-03-28T21:27:20.400Z,98.40
2019-03-28T21:29:53.599Z,99.10
2019-03-28T21:32:23.826Z,99.60
2019-03-28T21:34:56.422Z,99.90
2019-03-28T21:37:25.799Z,98.20
2019-03-28T21:39:55.917Z,97.20
2019-03-28T21:42:26.242Z,96.50
2019-03-28T21:44:58.343Z,98.40
2019-03-28T21:47:28.221Z,98.50
2019-03-28T21:49:58.239Z,99.90
2019-03-28T21:52:28.665Z,99.90
2019-03-28T21:54:58.788Z,99.90
2019-03-28T21:57:29.315Z,97.10
2019-03-28T22:00:00.051Z,97.70
2019-03-28T22:02:30.165Z,98.20
2019-03-28T22:05:01.337Z,98.10
2019-03-28T22:07:33.475Z,98.30
2019-03-28T22:10:04.314Z,99.60
2019-03-28T22:12:35.249Z,99.90
2019-03-28T22:15:08.850Z,97.90
2019-03-28T22:17:39.074Z,97.60
2019-03-28T22:20:09.191Z,96.80
2019-03-28T22:22:39.369Z,97.50
2019-03-28T22:25:09.326Z,97.80
2019-03-28T22:27:39.345Z,97.70
2019-03-28T22:30:10.496Z,98.70
2019-03-28T22:32:40.504Z,99.20
2019-03-28T22:35:10.725Z,99.40
2019-03-28T22:37:40.844Z,98.00
2019-03-28T22:40:12.117Z,98.70
2019-03-28T22:42:42.324Z,99.40
2019-03-28T22:45:12.410Z,99.10
2019-03-28T22:47:42.859Z,99.00
2019-03-28T22:50:13.181Z,98.50
2019-03-28T22:52:43.428Z,98.40
2019-03-28T22:55:13.522Z,98.10
2019-03-28T22:57:43.743Z,97.70
2019-03-28T23:00:14.271Z,98.60
2019-03-28T23:02:46.253Z,98.00
2019-03-28T23:05:16.558Z,97.70
2019-03-28T23:07:46.574Z,97.60
2019-03-28T23:10:17.296Z,96.50
2019-03-28T23:12:49.425Z,96.60
2019-03-28T23:15:21.921Z,96.70
2019-03-28T23:17:51.558Z,97.60
2019-03-28T23:20:21.881Z,96.90
2019-03-28T23:22:51.900Z,97.30
2019-03-28T23:25:22.426Z,97.50
2019-03-28T23:27:52.835Z,97.00
2019-03-28T23:30:23.278Z,97.70
2019-03-28T23:32:53.705Z,98.70
2019-03-28T23:35:23.926Z,97.90
2019-03-28T23:37:54.090Z,97.60
2019-03-28T23:40:26.334Z,97.80
2019-03-28T23:42:56.331Z,98.40
2019-03-28T23:45:27.270Z,98.40
2019-03-28T23:47:57.287Z,98.10
2019-03-28T23:50:27.612Z,97.30
2019-03-28T23:52:57.731Z,99.00
2019-03-28T23:55:28.054Z,98.10
2019-03-28T23:57:58.438Z,98.00
